Time;durP1;ratioP1;P1;durP2;ratioP2;P2;SDS_P1;SDS_P2;PMS_P1;PMS_P2;Temp;Humidity;BMP_temperature;BMP_pressure;BME280_temperature;BME280_humidity;BME280_pressure;Samples;Min_cycle;Max_cycle;Signal;HPM_P1;HPM_P2
2022/05/21 00:02:24;;;;;;;1.60;1.45;;;;;;;;;;5026026;28;20488;-87
2022/05/21 00:04:50;;;;;;;3.42;1.40;;;;;;;;;;5012244;28;20412;-85
2022/05/21 00:07:16;;;;;;;2.50;1.50;;;;;;;;;;5011380;28;20888;-85
2022/05/21 00:09:42;;;;;;;1.60;1.25;;;;;;;;;;5009878;28;20404;-86
2022/05/21 00:12:08;;;;;;;1.40;1.13;;;;;;;;;;5012193;28;20854;-85
2022/05/21 00:14:34;;;;;;;2.30;1.25;;;;;;;;;;5012478;28;20950;-85
2022/05/21 00:17:01;;;;;;;2.47;1.40;;;;;;;;;;5010727;28;20377;-85
2022/05/21 00:19:27;;;;;;;1.55;1.30;;;;;;;;;;5012227;28;20385;-86
2022/05/21 00:21:53;;;;;;;1.60;1.30;;;;;;;;;;5010774;28;20400;-85
2022/05/21 00:24:19;;;;;;;2.05;1.55;;;;;;;;;;5013923;28;20413;-86
2022/05/21 00:26:45;;;;;;;1.65;1.40;;;;;;;;;;5022983;28;20766;-85
2022/05/21 00:29:11;;;;;;;1.50;1.40;;;;;;;;;;4999000;28;20395;-85
2022/05/21 00:31:37;;;;;;;2.67;1.60;;;;;;;;;;5015656;28;20513;-86
2022/05/21 00:34:03;;;;;;;1.50;1.40;;;;;;;;;;5017615;28;20464;-86
2022/05/21 00:36:29;;;;;;;1.73;1.52;;;;;;;;;;5014609;28;20391;-85
2022/05/21 00:38:56;;;;;;;2.97;2.13;;;;;;;;;;5015703;28;20376;-87
2022/05/21 00:41:22;;;;;;;2.67;2.00;;;;;;;;;;5015453;28;20419;-87
2022/05/21 00:43:48;;;;;;;2.92;2.08;;;;;;;;;;5014375;28;20455;-86
2022/05/21 00:46:22;;;;;;;2.75;1.90;;;;;;;;;;5015744;28;20900;-86
2022/05/21 00:48:58;;;;;;;3.37;2.37;;;;;;;;;;5014733;28;20381;-88
2022/05/21 00:51:30;;;;;;;3.78;2.72;;;;;;;;;;5015057;28;20471;-85
2022/05/21 00:53:58;;;;;;;4.05;2.70;;;;;;;;;;5024104;28;20385;-85
2022/05/21 00:56:25;;;;;;;2.65;2.45;;;;;;;;;;5015416;28;20428;-85
2022/05/21 01:01:38;;;;;;;3.20;2.40;;;;;;;;;;5015301;28;20427;-85
2022/05/21 01:04:04;;;;;;;2.65;2.45;;;;;;;;;;5015129;28;20412;-85
2022/05/21 01:06:31;;;;;;;2.43;2.17;;;;;;;;;;5015145;28;20467;-85
2022/05/21 01:08:57;;;;;;;4.90;2.70;;;;;;;;;;5016549;28;20461;-86
2022/05/21 01:11:23;;;;;;;2.40;2.20;;;;;;;;;;5013781;28;20385;-85
2022/05/21 01:13:50;;;;;;;2.72;2.53;;;;;;;;;;5028383;28;20391;-84
2022/05/21 01:16:17;;;;;;;2.35;2.15;;;;;;;;;;5015101;28;20381;-84
2022/05/21 01:18:43;;;;;;;2.57;2.37;;;;;;;;;;5013990;28;20393;-85
2022/05/21 01:21:09;;;;;;;2.58;2.38;;;;;;;;;;5011255;28;20389;-85
2022/05/21 01:23:35;;;;;;;2.60;2.40;;;;;;;;;;5014145;28;20419;-85
2022/05/21 01:26:02;;;;;;;2.42;2.22;;;;;;;;;;5014110;28;20758;-85
2022/05/21 01:28:30;;;;;;;2.65;2.35;;;;;;;;;;5014194;28;20377;-85
2022/05/21 01:30:59;;;;;;;2.85;2.65;;;;;;;;;;5013856;28;20381;-85
2022/05/21 01:33:29;;;;;;;3.05;2.85;;;;;;;;;;5010688;28;20409;-85
2022/05/21 01:35:57;;;;;;;3.20;2.70;;;;;;;;;;5012422;28;20893;-85
2022/05/21 01:38:23;;;;;;;3.15;2.95;;;;;;;;;;5012811;28;20961;-84
2022/05/21 01:40:49;;;;;;;4.00;3.60;;;;;;;;;;5011049;28;20385;-84
2022/05/21 01:46:00;;;;;;;3.00;2.70;;;;;;;;;;5018422;28;20433;-87
2022/05/21 01:48:27;;;;;;;3.58;3.28;;;;;;;;;;5014768;28;20381;-84
2022/05/21 01:50:54;;;;;;;3.58;3.28;;;;;;;;;;5012388;28;20385;-84
2022/05/21 01:53:20;;;;;;;3.10;2.90;;;;;;;;;;5013497;28;20886;-85
2022/05/21 01:55:47;;;;;;;3.60;3.28;;;;;;;;;;5013611;28;20412;-85
2022/05/21 01:58:13;;;;;;;3.58;3.28;;;;;;;;;;5013481;28;20447;-84
2022/05/21 02:00:40;;;;;;;3.22;3.03;;;;;;;;;;5013403;28;20388;-85
2022/05/21 02:03:06;;;;;;;3.45;3.00;;;;;;;;;;5013170;28;20400;-85
2022/05/21 02:05:32;;;;;;;3.35;3.00;;;;;;;;;;5010616;28;20517;-86
2022/05/21 02:07:58;;;;;;;3.50;3.20;;;;;;;;;;5010019;28;20528;-85
2022/05/21 02:10:25;;;;;;;3.30;3.00;;;;;;;;;;5019985;28;20440;-85
2022/05/21 02:12:51;;;;;;;3.30;3.10;;;;;;;;;;5009839;28;20409;-86
2022/05/21 02:15:17;;;;;;;3.67;3.08;;;;;;;;;;5011379;28;20785;-85
2022/05/21 02:17:43;;;;;;;3.47;3.17;;;;;;;;;;5023727;28;20396;-87
2022/05/21 02:20:09;;;;;;;3.35;3.05;;;;;;;;;;5011805;28;20854;-86
2022/05/21 02:22:38;;;;;;;3.58;3.00;;;;;;;;;;5010335;28;20423;-86
2022/05/21 02:25:05;;;;;;;3.20;2.97;;;;;;;;;;5011566;28;20913;-86
2022/05/21 02:27:31;;;;;;;3.95;3.38;;;;;;;;;;5012094;28;20472;-86
2022/05/21 02:29:57;;;;;;;3.88;3.40;;;;;;;;;;5014828;28;20472;-86
2022/05/21 02:32:23;;;;;;;3.88;3.40;;;;;;;;;;5024722;28;20387;-87
2022/05/21 02:34:49;;;;;;;3.70;3.40;;;;;;;;;;5014409;28;20443;-87
2022/05/21 02:40:00;;;;;;;4.28;3.65;;;;;;;;;;5009862;28;20384;-86
2022/05/21 02:42:44;;;;;;;3.72;3.42;;;;;;;;;;5020392;28;20806;-84
2022/05/21 02:45:11;;;;;;;4.05;3.60;;;;;;;;;;5011158;28;21069;-85
2022/05/21 02:47:38;;;;;;;5.05;3.83;;;;;;;;;;5010641;28;20381;-86
2022/05/21 02:50:05;;;;;;;4.40;4.00;;;;;;;;;;5010603;28;20403;-86
2022/05/21 02:52:31;;;;;;;3.88;3.55;;;;;;;;;;5010261;28;20463;-85
2022/05/21 02:54:57;;;;;;;3.80;3.50;;;;;;;;;;5011037;28;20922;-87
2022/05/21 02:57:23;;;;;;;4.40;3.72;;;;;;;;;;5011960;28;20393;-87
2022/05/21 02:59:50;;;;;;;3.70;3.40;;;;;;;;;;5019632;28;20383;-87
2022/05/21 03:02:16;;;;;;;3.50;3.20;;;;;;;;;;5010552;28;20420;-87
2022/05/21 03:04:42;;;;;;;4.30;3.90;;;;;;;;;;5023120;28;20472;-86
2022/05/21 03:07:08;;;;;;;4.25;3.78;;;;;;;;;;5028053;28;20379;-84
2022/05/21 03:12:19;;;;;;;4.13;3.58;;;;;;;;;;5012236;28;20778;-86
2022/05/21 03:14:45;;;;;;;4.03;3.63;;;;;;;;;;5012196;28;20385;-85
2022/05/21 03:17:11;;;;;;;4.10;3.70;;;;;;;;;;5012001;28;20396;-84
2022/05/21 03:19:38;;;;;;;4.50;3.80;;;;;;;;;;5012036;28;20384;-85
2022/05/21 03:22:04;;;;;;;4.40;4.00;;;;;;;;;;5011825;28;20475;-86
2022/05/21 03:24:30;;;;;;;3.80;3.50;;;;;;;;;;5011908;28;20502;-84
2022/05/21 03:26:56;;;;;;;3.63;3.33;;;;;;;;;;5021305;28;20438;-86
2022/05/21 03:29:22;;;;;;;5.55;5.05;;;;;;;;;;5011834;28;20385;-84
2022/05/21 03:31:48;;;;;;;3.40;2.80;;;;;;;;;;4999513;28;20396;-86
2022/05/21 03:34:15;;;;;;;3.30;3.00;;;;;;;;;;5011997;28;20474;-86
2022/05/21 03:36:41;;;;;;;4.28;2.85;;;;;;;;;;5011826;28;20463;-86
2022/05/21 03:39:07;;;;;;;3.20;2.90;;;;;;;;;;5011947;28;20389;-86
2022/05/21 03:41:35;;;;;;;3.13;2.90;;;;;;;;;;5011742;28;20395;-83
2022/05/21 03:44:01;;;;;;;3.97;2.80;;;;;;;;;;5011966;28;20454;-85
2022/05/21 03:46:27;;;;;;;3.10;2.90;;;;;;;;;;5011601;28;20790;-85
2022/05/21 03:48:53;;;;;;;3.38;3.10;;;;;;;;;;5011832;28;20377;-86
2022/05/21 03:51:19;;;;;;;3.08;2.70;;;;;;;;;;5010568;28;20399;-85
2022/05/21 03:53:45;;;;;;;4.75;3.50;;;;;;;;;;5010655;28;20921;-85
2022/05/21 03:56:11;;;;;;;4.30;2.90;;;;;;;;;;5010494;28;20460;-85
2022/05/21 03:58:38;;;;;;;3.13;2.65;;;;;;;;;;5010596;28;20879;-85
2022/05/21 04:01:04;;;;;;;3.03;2.45;;;;;;;;;;5024931;28;20880;-85
2022/05/21 04:03:33;;;;;;;2.80;2.60;;;;;;;;;;5011580;28;20542;-85
2022/05/21 04:05:59;;;;;;;3.22;2.55;;;;;;;;;;5023454;28;20402;-85
2022/05/21 04:08:25;;;;;;;2.20;1.83;;;;;;;;;;5014383;28;20381;-85
2022/05/21 04:10:51;;;;;;;2.53;2.08;;;;;;;;;;5015483;28;20384;-85
2022/05/21 04:13:17;;;;;;;2.05;1.75;;;;;;;;;;5015455;28;20384;-85
2022/05/21 04:15:44;;;;;;;2.47;1.97;;;;;;;;;;5015444;28;20462;-85
2022/05/21 04:18:10;;;;;;;2.28;1.80;;;;;;;;;;5015311;28;20921;-85
2022/05/21 04:20:37;;;;;;;3.30;1.90;;;;;;;;;;5015411;28;20388;-85
2022/05/21 04:23:03;;;;;;;1.70;1.50;;;;;;;;;;5020454;28;20402;-85
2022/05/21 04:25:29;;;;;;;1.48;1.38;;;;;;;;;;5024115;28;20516;-85
2022/05/21 04:27:55;;;;;;;1.73;1.50;;;;;;;;;;5012957;28;20411;-85
2022/05/21 04:30:25;;;;;;;1.50;1.40;;;;;;;;;;5015106;28;20389;-85
2022/05/21 04:32:52;;;;;;;2.15;1.50;;;;;;;;;;5016818;28;20874;-85
2022/05/21 04:35:18;;;;;;;1.73;1.40;;;;;;;;;;5015160;28;20482;-85
2022/05/21 04:37:44;;;;;;;2.80;1.52;;;;;;;;;;5027758;28;20399;-85
2022/05/21 04:40:12;;;;;;;2.00;1.52;;;;;;;;;;5014542;28;20389;-85
2022/05/21 04:42:38;;;;;;;1.55;1.20;;;;;;;;;;5014991;28;20384;-85
2022/05/21 04:45:05;;;;;;;1.40;1.30;;;;;;;;;;5014782;28;20423;-85
2022/05/21 04:47:31;;;;;;;1.25;1.15;;;;;;;;;;5014183;28;20408;-85
2022/05/21 04:49:57;;;;;;;1.60;1.30;;;;;;;;;;5014842;28;20476;-84
2022/05/21 04:52:23;;;;;;;2.53;1.35;;;;;;;;;;5014777;28;20472;-85
2022/05/21 04:54:49;;;;;;;2.10;1.10;;;;;;;;;;5013436;28;20870;-85
2022/05/21 04:57:15;;;;;;;2.20;1.30;;;;;;;;;;5013380;28;20388;-84
2022/05/21 04:59:41;;;;;;;1.27;1.10;;;;;;;;;;5014730;28;20890;-85
2022/05/21 05:02:08;;;;;;;2.47;1.38;;;;;;;;;;5016901;28;20484;-85
2022/05/21 05:04:34;;;;;;;1.42;1.30;;;;;;;;;;5014574;28;20988;-85
2022/05/21 05:07:06;;;;;;;1.85;1.30;;;;;;;;;;5016892;28;20409;-84
2022/05/21 05:09:38;;;;;;;1.73;1.08;;;;;;;;;;5011274;28;20380;-85
2022/05/21 05:12:04;;;;;;;1.27;1.10;;;;;;;;;;5014432;28;20381;-85
2022/05/21 05:14:30;;;;;;;1.42;1.33;;;;;;;;;;5014360;28;20395;-85
2022/05/21 05:16:56;;;;;;;2.00;1.33;;;;;;;;;;5012949;28;20400;-85
2022/05/21 05:19:22;;;;;;;1.88;1.15;;;;;;;;;;5014324;28;20389;-85
2022/05/21 05:21:48;;;;;;;1.40;1.27;;;;;;;;;;5009961;28;20924;-85
2022/05/21 05:24:14;;;;;;;1.88;1.17;;;;;;;;;;5012862;28;20425;-85
2022/05/21 05:26:40;;;;;;;2.72;1.10;;;;;;;;;;5003614;28;20759;-85
2022/05/21 05:29:08;;;;;;;2.78;1.40;;;;;;;;;;5014150;28;20384;-85
2022/05/21 05:31:34;;;;;;;1.58;1.30;;;;;;;;;;5013816;28;20392;-85
2022/05/21 05:34:00;;;;;;;1.70;1.10;;;;;;;;;;5014053;28;20552;-85
2022/05/21 05:36:28;;;;;;;1.70;1.35;;;;;;;;;;5013930;28;20949;-85
2022/05/21 05:38:54;;;;;;;2.15;1.33;;;;;;;;;;5013933;28;20385;-85
2022/05/21 05:41:20;;;;;;;1.77;1.40;;;;;;;;;;5013835;28;20471;-85
2022/05/21 05:43:46;;;;;;;1.95;1.30;;;;;;;;;;5013727;28;20408;-85
2022/05/21 05:46:12;;;;;;;1.20;1.10;;;;;;;;;;5013822;28;20480;-85
2022/05/21 05:48:38;;;;;;;2.15;1.40;;;;;;;;;;5012311;28;20476;-85
2022/05/21 05:51:04;;;;;;;1.90;1.38;;;;;;;;;;5013678;28;20389;-85
2022/05/21 05:53:30;;;;;;;2.45;1.30;;;;;;;;;;5013566;28;20396;-85
2022/05/21 05:55:56;;;;;;;1.88;0.90;;;;;;;;;;5013666;28;20396;-85
2022/05/21 06:01:08;;;;;;;0.90;0.90;;;;;;;;;;5013641;28;20388;-85
2022/05/21 06:03:34;;;;;;;1.10;1.00;;;;;;;;;;5011996;28;20415;-85
2022/05/21 06:06:01;;;;;;;1.73;1.20;;;;;;;;;;5013396;28;20377;-85
2022/05/21 06:08:27;;;;;;;1.70;1.35;;;;;;;;;;5013506;28;20380;-85
2022/05/21 06:10:53;;;;;;;4.30;3.25;;;;;;;;;;5010087;28;20442;-85
2022/05/21 06:13:19;;;;;;;1.20;0.90;;;;;;;;;;5013306;28;20845;-85
2022/05/21 06:15:45;;;;;;;1.27;1.00;;;;;;;;;;5013252;28;20384;-85
2022/05/21 06:18:13;;;;;;;1.20;0.80;;;;;;;;;;5013131;28;20377;-85
2022/05/21 06:20:40;;;;;;;1.55;0.93;;;;;;;;;;5013133;28;20786;-84
2022/05/21 06:23:06;;;;;;;2.10;0.98;;;;;;;;;;5023627;28;20755;-85
2022/05/21 06:25:35;;;;;;;1.20;1.10;;;;;;;;;;5012990;28;20409;-85
2022/05/21 06:28:01;;;;;;;1.63;1.15;;;;;;;;;;5012360;28;20427;-85
2022/05/21 06:30:29;;;;;;;1.08;0.90;;;;;;;;;;5013031;28;20476;-85
2022/05/21 06:32:55;;;;;;;2.13;1.10;;;;;;;;;;5012674;28;20408;-84
2022/05/21 06:35:21;;;;;;;3.92;1.10;;;;;;;;;;5012908;28;20743;-85
2022/05/21 06:37:47;;;;;;;1.90;1.02;;;;;;;;;;5012860;28;20384;-85
2022/05/21 06:40:14;;;;;;;1.00;1.00;;;;;;;;;;5012836;28;20388;-85
2022/05/21 06:42:40;;;;;;;0.98;0.82;;;;;;;;;;5013025;28;20388;-85
2022/05/21 06:45:07;;;;;;;1.38;1.00;;;;;;;;;;5012560;28;20499;-85
2022/05/21 06:47:33;;;;;;;1.20;1.00;;;;;;;;;;5012785;28;20385;-85
2022/05/21 06:49:59;;;;;;;0.95;0.88;;;;;;;;;;5011373;28;20758;-86
2022/05/21 06:52:27;;;;;;;2.45;1.00;;;;;;;;;;5012912;28;20922;-85
2022/05/21 06:54:53;;;;;;;1.30;0.98;;;;;;;;;;5013123;28;20389;-85
2022/05/21 06:57:21;;;;;;;1.17;1.00;;;;;;;;;;5014795;28;20416;-85
2022/05/21 06:59:47;;;;;;;1.08;0.90;;;;;;;;;;5011862;28;20439;-85
2022/05/21 07:02:13;;;;;;;2.17;1.00;;;;;;;;;;5010219;28;20499;-85
2022/05/21 07:07:34;;;;;;;1.00;0.90;;;;;;;;;;5012520;28;21036;-85
2022/05/21 07:10:01;;;;;;;2.38;1.00;;;;;;;;;;5009727;28;20500;-85
2022/05/21 07:12:28;;;;;;;1.65;1.15;;;;;;;;;;5009535;28;20377;-85
2022/05/21 07:14:54;;;;;;;1.17;0.90;;;;;;;;;;5011768;28;20389;-85
2022/05/21 07:17:20;;;;;;;1.20;1.10;;;;;;;;;;5009663;28;20388;-85
2022/05/21 07:19:46;;;;;;;1.30;1.00;;;;;;;;;;5011045;28;20893;-86
2022/05/21 07:22:12;;;;;;;1.27;1.00;;;;;;;;;;5012245;28;20422;-86
2022/05/21 07:24:39;;;;;;;1.30;1.08;;;;;;;;;;5012718;28;20416;-85
2022/05/21 07:27:05;;;;;;;1.17;1.08;;;;;;;;;;5012452;28;20451;-86
2022/05/21 07:29:31;;;;;;;1.85;0.90;;;;;;;;;;5011220;28;20392;-86
2022/05/21 07:31:57;;;;;;;1.20;1.10;;;;;;;;;;5011051;28;20439;-86
2022/05/21 07:34:23;;;;;;;1.50;1.05;;;;;;;;;;5011283;28;20380;-86
2022/05/21 07:36:49;;;;;;;1.40;1.00;;;;;;;;;;5012916;28;20443;-86
2022/05/21 07:39:15;;;;;;;1.40;0.90;;;;;;;;;;5013980;28;20393;-87
2022/05/21 07:41:41;;;;;;;2.05;1.40;;;;;;;;;;5013270;28;20381;-87
2022/05/21 07:44:07;;;;;;;1.90;1.08;;;;;;;;;;5012293;28;20415;-86
2022/05/21 07:46:34;;;;;;;1.20;1.10;;;;;;;;;;5010076;28;20405;-88
2022/05/21 07:49:00;;;;;;;2.43;1.30;;;;;;;;;;5002807;28;20429;-87
2022/05/21 07:51:27;;;;;;;1.75;1.30;;;;;;;;;;5011691;28;20411;-86
2022/05/21 07:53:53;;;;;;;1.52;1.35;;;;;;;;;;5011916;28;20420;-87
2022/05/21 07:56:19;;;;;;;2.03;1.60;;;;;;;;;;5011903;28;20434;-87
2022/05/21 07:58:45;;;;;;;2.03;1.65;;;;;;;;;;5011682;28;20468;-87
2022/05/21 08:01:12;;;;;;;2.70;1.67;;;;;;;;;;5011758;28;20385;-83
2022/05/21 08:03:38;;;;;;;4.22;1.70;;;;;;;;;;5011529;28;20412;-85
2022/05/21 08:06:04;;;;;;;1.85;1.40;;;;;;;;;;5011667;28;20400;-84
2022/05/21 08:08:30;;;;;;;1.83;1.58;;;;;;;;;;4996935;28;20868;-87
2022/05/21 08:10:56;;;;;;;3.15;1.52;;;;;;;;;;5009594;28;20393;-91
2022/05/21 08:13:23;;;;;;;1.38;1.20;;;;;;;;;;5016304;28;20906;-89
2022/05/21 08:15:49;;;;;;;1.65;1.40;;;;;;;;;;5014946;28;20389;-88
2022/05/21 08:18:15;;;;;;;2.20;1.40;;;;;;;;;;5011472;28;20387;-88
2022/05/21 08:20:42;;;;;;;1.90;1.40;;;;;;;;;;5011138;28;20385;-89
2022/05/21 08:28:41;;;;;;;1.40;1.30;;;;;;;;;;5009362;28;20423;-86
2022/05/21 08:31:08;;;;;;;4.05;1.80;;;;;;;;;;5008660;28;20435;-89
2022/05/21 08:33:33;;;;;;;2.67;2.00;;;;;;;;;;5010804;28;20396;-89
2022/05/21 08:35:59;;;;;;;3.50;1.80;;;;;;;;;;5011370;28;20377;-87
2022/05/21 08:38:26;;;;;;;2.33;1.70;;;;;;;;;;5010395;28;20859;-88
2022/05/21 08:41:11;;;;;;;1.30;1.20;;;;;;;;;;5010880;28;20389;-87
2022/05/21 08:43:43;;;;;;;2.05;1.55;;;;;;;;;;4998265;28;20404;-87
2022/05/21 08:46:15;;;;;;;1.67;1.45;;;;;;;;;;5011279;28;20388;-88
2022/05/21 08:48:44;;;;;;;2.03;1.30;;;;;;;;;;4998066;28;20387;-87
2022/05/21 08:51:15;;;;;;;1.45;1.23;;;;;;;;;;5013121;28;20898;-87
2022/05/21 08:53:45;;;;;;;1.48;1.38;;;;;;;;;;5014922;28;20385;-88
2022/05/21 08:56:11;;;;;;;1.40;1.30;;;;;;;;;;5013890;28;20401;-87
2022/05/21 08:58:41;;;;;;;1.60;1.20;;;;;;;;;;5014625;28;20380;-87
2022/05/21 09:01:07;;;;;;;1.50;1.40;;;;;;;;;;5011538;28;20439;-87
2022/05/21 09:03:33;;;;;;;1.85;1.48;;;;;;;;;;5014432;28;20480;-88
2022/05/21 09:06:05;;;;;;;1.70;1.40;;;;;;;;;;5017089;28;20412;-88
2022/05/21 09:08:34;;;;;;;2.13;1.80;;;;;;;;;;5011294;28;20433;-88
2022/05/21 09:11:06;;;;;;;2.80;2.50;;;;;;;;;;5028331;28;20411;-87
2022/05/21 09:13:46;;;;;;;2.38;2.17;;;;;;;;;;5025329;28;20419;-88
2022/05/21 09:18:58;;;;;;;2.10;1.80;;;;;;;;;;5014012;28;20380;-88
2022/05/21 09:21:26;;;;;;;2.25;1.67;;;;;;;;;;5019295;28;21059;-87
2022/05/21 09:23:53;;;;;;;4.90;2.10;;;;;;;;;;5022057;28;20413;-89
2022/05/21 09:26:30;;;;;;;3.40;1.95;;;;;;;;;;5011973;28;20439;-89
2022/05/21 09:29:16;;;;;;;2.70;1.83;;;;;;;;;;5000949;28;20493;-87
2022/05/21 09:31:42;;;;;;;3.73;2.17;;;;;;;;;;5012369;28;20774;-89
2022/05/21 09:34:31;;;;;;;2.63;2.22;;;;;;;;;;5013997;28;20388;-88
2022/05/21 09:36:58;;;;;;;2.53;2.30;;;;;;;;;;4998909;28;20454;-89
2022/05/21 09:39:41;;;;;;;3.37;2.70;;;;;;;;;;5001834;28;20399;-89
2022/05/21 09:42:08;;;;;;;3.58;2.47;;;;;;;;;;5013872;28;20396;-90
2022/05/21 09:47:23;;;;;;;3.53;2.20;;;;;;;;;;5022740;28;20871;-90
2022/05/21 09:50:05;;;;;;;4.00;2.45;;;;;;;;;;5016538;28;20385;-88
2022/05/21 09:52:32;;;;;;;2.97;2.53;;;;;;;;;;5013621;28;20417;-88
2022/05/21 09:54:58;;;;;;;3.88;2.80;;;;;;;;;;5015910;28;20807;-91
2022/05/21 09:57:42;;;;;;;3.78;2.58;;;;;;;;;;5021572;28;20403;-87
2022/05/21 10:00:14;;;;;;;3.15;2.63;;;;;;;;;;5006701;28;20381;-87
2022/05/21 10:02:45;;;;;;;3.15;2.42;;;;;;;;;;5009633;28;20465;-88
2022/05/21 10:05:17;;;;;;;2.45;2.25;;;;;;;;;;5020977;28;20404;-88
2022/05/21 10:13:19;;;;;;;3.08;2.78;;;;;;;;;;5011364;28;20376;-92
2022/05/21 10:15:49;;;;;;;3.03;2.60;;;;;;;;;;5008956;28;20391;-88
2022/05/21 10:18:24;;;;;;;3.60;2.67;;;;;;;;;;5007396;28;20402;-89
2022/05/21 10:20:54;;;;;;;2.80;2.60;;;;;;;;;;5005446;28;20403;-90
2022/05/21 10:23:30;;;;;;;2.92;2.50;;;;;;;;;;5010057;28;20784;-90
2022/05/21 10:26:14;;;;;;;3.35;2.58;;;;;;;;;;5008803;28;20392;-91
2022/05/21 10:28:50;;;;;;;3.70;2.60;;;;;;;;;;5012002;28;20965;-89
2022/05/21 10:31:54;;;;;;;2.63;2.42;;;;;;;;;;5011207;28;20396;-89
2022/05/21 10:34:39;;;;;;;4.05;2.80;;;;;;;;;;4957189;28;20499;-88
2022/05/21 10:37:10;;;;;;;3.28;2.97;;;;;;;;;;4971744;28;20884;-88
2022/05/21 10:39:56;;;;;;;3.37;3.00;;;;;;;;;;4971632;28;20488;-89
2022/05/21 10:42:30;;;;;;;3.20;2.80;;;;;;;;;;4971470;28;20439;-88
2022/05/21 10:45:08;;;;;;;3.63;3.30;;;;;;;;;;4971325;28;20422;-88
2022/05/21 10:47:40;;;;;;;3.92;3.10;;;;;;;;;;4971336;28;20960;-87
2022/05/21 10:50:26;;;;;;;3.03;2.67;;;;;;;;;;4971422;28;21125;-87
2022/05/21 10:53:03;;;;;;;3.20;2.90;;;;;;;;;;4963991;28;20394;-87
2022/05/21 10:55:40;;;;;;;3.22;3.00;;;;;;;;;;4958057;28;20392;-87
2022/05/21 10:58:09;;;;;;;2.88;2.55;;;;;;;;;;4971206;28;20731;-87
2022/05/21 11:00:40;;;;;;;3.30;3.00;;;;;;;;;;4970766;28;20400;-88
2022/05/21 11:03:21;;;;;;;3.58;2.78;;;;;;;;;;4971002;28;20487;-88
2022/05/21 11:06:06;;;;;;;4.53;2.85;;;;;;;;;;4991365;28;20412;-87
2022/05/21 11:08:31;;;;;;;3.90;3.00;;;;;;;;;;5012390;28;20388;-87
2022/05/21 11:11:07;;;;;;;6.28;3.22;;;;;;;;;;5008158;28;20373;-88
2022/05/21 11:13:37;;;;;;;4.40;3.13;;;;;;;;;;5012292;28;20381;-88
2022/05/21 11:16:09;;;;;;;4.20;3.15;;;;;;;;;;5012475;28;20385;-88
2022/05/21 11:18:35;;;;;;;4.93;3.10;;;;;;;;;;5012100;28;20388;-87
2022/05/21 11:21:04;;;;;;;3.85;2.75;;;;;;;;;;5012092;28;20905;-88
2022/05/21 11:23:48;;;;;;;3.35;3.00;;;;;;;;;;5011868;28;20396;-87
2022/05/21 11:26:18;;;;;;;3.70;3.40;;;;;;;;;;5011958;28;20463;-88
2022/05/21 11:28:50;;;;;;;4.18;2.70;;;;;;;;;;5012069;28;20381;-87
2022/05/21 11:31:16;;;;;;;4.38;3.10;;;;;;;;;;5013488;28;20888;-87
2022/05/21 11:39:16;;;;;;;3.47;2.70;;;;;;;;;;5012275;28;20403;-87
2022/05/21 11:41:55;;;;;;;4.00;2.20;;;;;;;;;;5011185;28;20397;-87
2022/05/21 11:47:20;;;;;;;4.15;2.80;;;;;;;;;;5011558;28;20380;-87
2022/05/21 11:49:59;;;;;;;5.85;2.50;;;;;;;;;;5011513;28;20391;-87
2022/05/21 11:52:28;;;;;;;4.05;2.78;;;;;;;;;;5011445;28;20534;-89
2022/05/21 11:54:54;;;;;;;3.03;2.72;;;;;;;;;;5011505;28;20480;-88
2022/05/21 11:57:39;;;;;;;3.00;2.70;;;;;;;;;;5011667;28;20456;-88
2022/05/21 12:00:08;;;;;;;2.97;2.70;;;;;;;;;;5011324;28;20435;-86
2022/05/21 12:02:36;;;;;;;4.00;2.35;;;;;;;;;;5011195;28;20396;-86
2022/05/21 12:05:08;;;;;;;3.67;2.40;;;;;;;;;;5011453;28;20500;-87
2022/05/21 12:07:44;;;;;;;2.70;2.50;;;;;;;;;;5011499;28;20443;-84
2022/05/21 12:10:13;;;;;;;2.50;2.30;;;;;;;;;;5011415;28;20381;-86
2022/05/21 12:13:01;;;;;;;2.50;2.30;;;;;;;;;;5007428;28;20406;-86
2022/05/21 12:15:44;;;;;;;2.50;2.30;;;;;;;;;;5003769;28;20380;-89
2022/05/21 12:18:28;;;;;;;2.50;2.30;;;;;;;;;;5011599;28;20376;-88
2022/05/21 12:20:55;;;;;;;2.63;2.30;;;;;;;;;;4998328;28;20414;-88
2022/05/21 12:23:30;;;;;;;4.17;2.60;;;;;;;;;;4994427;28;20413;-88
2022/05/21 12:25:57;;;;;;;3.15;2.40;;;;;;;;;;4999851;28;20382;-88
2022/05/21 12:28:32;;;;;;;3.92;2.20;;;;;;;;;;5004719;28;20377;-88
2022/05/21 12:31:00;;;;;;;3.38;2.45;;;;;;;;;;5000497;28;20385;-90
2022/05/21 12:33:32;;;;;;;3.63;2.33;;;;;;;;;;5001233;28;20889;-88
2022/05/21 12:36:06;;;;;;;2.53;2.33;;;;;;;;;;5009377;28;20401;-89
2022/05/21 12:38:35;;;;;;;3.83;2.25;;;;;;;;;;5003876;28;20462;-88
2022/05/21 12:41:13;;;;;;;3.28;2.08;;;;;;;;;;5007743;28;20381;-89
2022/05/21 12:43:47;;;;;;;2.83;2.05;;;;;;;;;;5014634;28;20460;-90
2022/05/21 12:46:19;;;;;;;3.55;2.72;;;;;;;;;;5012077;28;20392;-90
2022/05/21 12:48:46;;;;;;;2.95;2.25;;;;;;;;;;5014458;28;20862;-90
2022/05/21 12:51:21;;;;;;;2.45;2.13;;;;;;;;;;5014731;28;20917;-91
2022/05/21 12:53:48;;;;;;;2.65;2.20;;;;;;;;;;5012258;28;20439;-88
2022/05/21 12:56:37;;;;;;;3.08;2.78;;;;;;;;;;5015476;28;20385;-90
2022/05/21 12:59:04;;;;;;;2.70;2.17;;;;;;;;;;5002868;28;20404;-87
2022/05/21 13:01:31;;;;;;;2.27;2.07;;;;;;;;;;5015249;28;20403;-88
2022/05/21 13:03:59;;;;;;;2.25;2.10;;;;;;;;;;5012437;28;20825;-89
2022/05/21 13:06:27;;;;;;;2.33;2.10;;;;;;;;;;5015251;28;20479;-89
2022/05/21 13:08:53;;;;;;;2.90;2.33;;;;;;;;;;5015183;28;20937;-89
2022/05/21 13:11:21;;;;;;;2.63;2.25;;;;;;;;;;5015685;28;20417;-90
2022/05/21 13:13:57;;;;;;;3.45;2.55;;;;;;;;;;5028917;28;20449;-89
2022/05/21 13:16:23;;;;;;;3.70;2.50;;;;;;;;;;5001824;28;20373;-90
2022/05/21 13:19:08;;;;;;;2.40;2.10;;;;;;;;;;5013798;28;20401;-89
2022/05/21 13:21:45;;;;;;;2.40;2.20;;;;;;;;;;5014811;28;20388;-89
2022/05/21 13:24:10;;;;;;;3.70;2.00;;;;;;;;;;5014958;28;20415;-89
2022/05/21 13:26:38;;;;;;;2.67;2.20;;;;;;;;;;5015031;28;20418;-91
2022/05/21 13:29:15;;;;;;;3.78;2.10;;;;;;;;;;5012380;28;20389;-89
2022/05/21 13:31:41;;;;;;;2.97;2.13;;;;;;;;;;5012702;28;20389;-88
2022/05/21 13:34:07;;;;;;;4.00;2.38;;;;;;;;;;5014686;28;20472;-89
2022/05/21 13:36:34;;;;;;;3.63;2.35;;;;;;;;;;5014318;28;20393;-89
2022/05/21 13:39:01;;;;;;;2.10;1.90;;;;;;;;;;5014570;28;20392;-89
2022/05/21 13:41:33;;;;;;;3.00;2.10;;;;;;;;;;5014422;28;21055;-90
2022/05/21 13:44:00;;;;;;;2.45;2.10;;;;;;;;;;5013503;28;20404;-89
2022/05/21 13:46:34;;;;;;;5.30;2.22;;;;;;;;;;5013160;28;20400;-89
2022/05/21 13:49:03;;;;;;;2.28;2.08;;;;;;;;;;5022297;28;20865;-88
2022/05/21 13:51:32;;;;;;;2.60;2.20;;;;;;;;;;5018740;28;20424;-84
2022/05/21 13:53:59;;;;;;;3.58;2.50;;;;;;;;;;5006202;28;20876;-87
2022/05/21 13:56:36;;;;;;;2.83;2.10;;;;;;;;;;5005578;28;20436;-87
2022/05/21 13:59:05;;;;;;;11.60;3.07;;;;;;;;;;5014133;28;20464;-89
2022/05/21 14:01:32;;;;;;;5.40;2.23;;;;;;;;;;5014191;28;20935;-89
2022/05/21 14:04:06;;;;;;;2.20;2.00;;;;;;;;;;5014085;28;20878;-88
2022/05/21 14:06:32;;;;;;;3.00;2.22;;;;;;;;;;5014186;28;20519;-89
2022/05/21 14:09:02;;;;;;;2.47;2.08;;;;;;;;;;5009522;28;20381;-90
2022/05/21 14:11:30;;;;;;;2.13;1.90;;;;;;;;;;5011173;28;20487;-88
2022/05/21 14:14:07;;;;;;;3.70;2.10;;;;;;;;;;5014994;28;20861;-89
2022/05/21 14:16:34;;;;;;;2.50;2.30;;;;;;;;;;5010122;28;20472;-89
2022/05/21 14:19:15;;;;;;;2.60;1.90;;;;;;;;;;5012226;28;20385;-89
2022/05/21 14:22:00;;;;;;;2.67;1.92;;;;;;;;;;5013090;28;20858;-89
2022/05/21 14:24:27;;;;;;;2.88;2.10;;;;;;;;;;5009116;28;20417;-88
2022/05/21 14:27:00;;;;;;;2.40;2.20;;;;;;;;;;5012275;28;20468;-89
2022/05/21 14:29:30;;;;;;;2.50;2.30;;;;;;;;;;5011019;28;20396;-88
2022/05/21 14:32:10;;;;;;;2.40;2.20;;;;;;;;;;5012787;28;20749;-88
2022/05/21 14:34:36;;;;;;;2.95;2.15;;;;;;;;;;5012056;28;20380;-89
2022/05/21 14:37:02;;;;;;;8.57;3.55;;;;;;;;;;5011973;28;20936;-88
2022/05/21 14:39:28;;;;;;;2.28;2.08;;;;;;;;;;5013471;28;20464;-88
2022/05/21 14:41:58;;;;;;;2.22;2.00;;;;;;;;;;5013419;28;20573;-89
2022/05/21 14:44:26;;;;;;;5.65;2.30;;;;;;;;;;5013410;28;20416;-89
2022/05/21 14:49:37;;;;;;;2.27;2.03;;;;;;;;;;5012975;28;20380;-88
2022/05/21 14:54:50;;;;;;;2.40;2.10;;;;;;;;;;5013452;28;20930;-88
2022/05/21 14:57:16;;;;;;;68.18;7.53;;;;;;;;;;5013240;28;20404;-88
2022/05/21 14:59:43;;;;;;;4.85;1.90;;;;;;;;;;5010645;28;20392;-86
2022/05/21 15:02:09;;;;;;;2.53;1.90;;;;;;;;;;5012979;28;20381;-88
2022/05/21 15:04:36;;;;;;;4.25;2.30;;;;;;;;;;5005608;28;20413;-88
2022/05/21 15:07:05;;;;;;;22.20;3.88;;;;;;;;;;5003372;28;20886;-88
2022/05/21 15:09:31;;;;;;;11.33;2.70;;;;;;;;;;5005339;28;20382;-88
2022/05/21 15:11:58;;;;;;;2.80;1.75;;;;;;;;;;5020697;28;20384;-89
2022/05/21 15:14:24;;;;;;;3.35;1.85;;;;;;;;;;5011840;28;20471;-88
2022/05/21 15:16:50;;;;;;;2.63;1.63;;;;;;;;;;5015651;28;20885;-88
2022/05/21 15:19:16;;;;;;;3.45;1.30;;;;;;;;;;5011419;28;20403;-88
2022/05/21 15:21:45;;;;;;;1.60;1.00;;;;;;;;;;5011003;28;20388;-88
2022/05/21 15:24:11;;;;;;;2.92;1.20;;;;;;;;;;5010869;28;20415;-87
2022/05/21 15:26:37;;;;;;;1.75;1.02;;;;;;;;;;5011907;28;20387;-88
2022/05/21 15:29:04;;;;;;;1.65;0.80;;;;;;;;;;5011861;28;20412;-87
2022/05/21 15:31:31;;;;;;;1.90;1.07;;;;;;;;;;5012550;28;20381;-87
2022/05/21 15:34:04;;;;;;;1.35;1.20;;;;;;;;;;5011217;28;20385;-88
2022/05/21 15:36:30;;;;;;;1.15;1.02;;;;;;;;;;5010474;28;20385;-88
2022/05/21 15:38:57;;;;;;;1.65;1.20;;;;;;;;;;5001533;28;20741;-86
2022/05/21 15:41:24;;;;;;;0.88;0.68;;;;;;;;;;5008007;28;20381;-86